Welcome to our Virtual Airline
Sign-in:

Flight MFC631051

  • Submitted By: William Butler
  • Departure Airport: San Manuel (E77)
  • Arrival Airport: Falcon (KFFZ)
  • Aircraft: CESSNA 182 (N182MM)
  • Flight Time: 01.07.03
  • Date Submitted: 21/08/15
  • Route: STOP-OVER AT 1. LA CHOLLA AIRPARK (57AZ) 2. ELOY MUN (E60)
  • Status: Accepted
Flight Details
Gross Revenue:
(2 load / $ 101.00 per unit
$ 202.00
Fuel Cost:
(88.4505 fuel used @ 5.1 / unit)
$ 451.10

Additional Log Information:

View Log

[11:53] ----- Flight Opened -----
[11:53] Cigar Box - 1.1.4.0
[11:53] FS: FSX
[11:53] FSUIPC: v4.929
[11:53] Flight Number: MFC631051
[11:53] FS Aircraft: C182_N6182G
[11:53] FS Model: C182
[11:53] FS Type: Cessna
[11:53] Departure: E77
[11:53] Arrival: KFFZ
[11:53] Flight Level: 6500
[11:53] Flight Type: H
[11:53] Passengers: 2
[11:53] FOB: 241 lbs
[11:53] Gate: 4 - E77
[11:53] NOTE: Parking Brake Ignored
[11:53] Crash Detection: Disabled
[11:53] Crash Detection Aircraft: Disabled
[11:53] Engines: 1 Piston
[11:53] NOTE: Boarding has started
[11:53] Engine 1: Started
[11:53] Light Data: Navigation ON
[11:53] Light Data: Beacon ON
[11:53] Light Data: Taxi lights ON
[11:53] Light Data: Strobe lights ON
[11:53] Light Data: Instrument lights ON
[11:53] Main Door Closed
[11:54] COM1: 128.30
[11:54] COM2: 127.80
[11:54] Transponder: 0000
[11:54] NAV1: 113.70
[11:54] NAV2: 110.60
[11:54] ADF1: 284.0
[11:54] ADF2: 240.0
[11:54] Navigation Mode: NAV
[11:57] NOTE: Pushing back
[12:00] NOTE: Taxi started
[12:00] NOTE: ----- TAKE OFF -----
[12:00] GS: 46 knots
[12:00] TAS: 47 knots
[12:00] IAS: 45 knots
[12:00] VS: 9 fpm
[12:00] FOB: 438 lbs
[12:00] Heading: 296°
[12:00] Pitch: 3°
[12:00] Bank: 0°
[12:00] Aircraft Weight: 2524.92 lbs
[12:00] Nearest Airport: E77
[12:00] Distance: 0.17 miles
[12:00] Runway: 29 - E77
[12:00] Ground Surface: Grass Bumpy
[12:00] Ground Condition: Normal
[12:00] NOTE: Weather Report
[12:00] Wind Heading: 349°
[12:00] Wind Speed: 0 knots
[12:00] OAT: 8° C
[12:00] TAT: 9° C
[12:00] Precipitation: None
[12:00] Dew Point: -1° C
[12:00] Visibility: 62 miles
[12:00] METAR:
[12:01] NOTE: Climb started
[12:01] View Mode: Virtual Cockpit
[12:03] Transponder: 1200
[12:03] NOTE: TOC reached
[12:03] NOTE: Cruise started
[12:03] GS: 91 knots
[12:03] TAS: 93 knots
[12:03] IAS: 86 knots
[12:03] VS: 199 fpm
[12:03] FOB: 432 lbs
[12:03] Heading: 234°
[12:03] Pitch: 4°
[12:03] Bank: 0°
[12:03] Aircraft Weight: 2518.88 lbs
[12:05] NOTE: TOD reached
[12:05] NOTE: Descent started
[12:05] GS: 130 knots
[12:05] TAS: 141 knots
[12:05] IAS: 130 knots
[12:05] VS: -583 fpm
[12:05] FOB: 429 lbs
[12:05] Heading: 253°
[12:05] Pitch: 1°
[12:05] Bank: -2°
[12:05] Aircraft Weight: 2515.11 lbs
[12:05] NOTE: On approach
[12:13] NOTE: ----- LANDED -----
[12:13] Landing Rate: -139.95 fpm
[12:13] GS: 87 knots
[12:13] TAS: 88 knots
[12:13] IAS: 84 knots
[12:13] VS: -139 fpm
[12:13] FOB: 419 lbs
[12:13] Heading: 188°
[12:13] Pitch: 0°
[12:13] Bank: 2°
[12:13] Aircraft Weight: 2506.04 lbs
[12:13] Nearest Airport: 57AZ
[12:13] Distance: 0.43 miles
[12:13] Runway: 19 - 57AZ
[12:13] Ground Surface: Asphalt
[12:13] Ground Condition: Normal
[12:13] NOTE: Weather Report
[12:13] Wind Heading: 349°
[12:13] Wind Speed: 0 knots
[12:13] OAT: 9° C
[12:13] TAT: 10° C
[12:13] Precipitation: None
[12:13] Dew Point: 0° C
[12:13] Visibility: 62 miles
[12:13] METAR: KFFZ 151754Z 13003KT 10SM CLR 32/22 A2998 RMK AO2 SLP128 T03220217 10322 20267 58008 $
[12:13] View Mode: Virtual Cockpit
[12:13] View Mode: Virtual Cockpit
[12:18] FS: Paused
[12:19] FS: Unpaused
[12:21] FS: Paused
[12:21] FS: Unpaused
[12:31] NOTE: ----- LANDED -----
[12:31] Landing Rate: -26.91 fpm
[12:31] GS: 81 knots
[12:31] TAS: 81 knots
[12:31] IAS: 80 knots
[12:31] VS: -26 fpm
[12:31] FOB: 399 lbs
[12:31] Heading: 24°
[12:31] Pitch: 0°
[12:31] Bank: 0°
[12:31] Aircraft Weight: 2485.89 lbs
[12:31] Nearest Airport: E60
[12:31] Distance: 0.11 miles
[12:31] Runway: 2 - E60
[12:31] Ground Surface: Asphalt
[12:31] Ground Condition: Normal
[12:31] NOTE: Weather Report
[12:31] Wind Heading: 349°
[12:31] Wind Speed: 0 knots
[12:31] OAT: 12° C
[12:31] TAT: 13° C
[12:31] Precipitation: None
[12:31] Dew Point: 2° C
[12:31] Visibility: 62 miles
[12:31] METAR: KFFZ 151754Z 13003KT 10SM CLR 32/22 A2998 RMK AO2 SLP128 T03220217 10322 20267 58008 $
[12:31] View Mode: Virtual Cockpit
[12:31] View Mode: Virtual Cockpit
[12:37] Recovery: Flight Saved
[12:40] FS: Paused
[16:32] FS: Unpaused
[16:32] Recovery: Flight Saved
[16:33] FS: Paused
[16:33] FS: Unpaused
[16:42] NOTE: ----- LANDED -----
[16:42] Landing Rate: -80.74 fpm
[16:42] GS: 91 knots
[16:42] TAS: 91 knots
[16:42] IAS: 89 knots
[16:42] VS: -78 fpm
[16:42] FOB: 376 lbs
[16:42] Heading: 43°
[16:42] Pitch: 0°
[16:42] Bank: 1°
[16:42] Aircraft Weight: 2462.03 lbs
[16:42] Nearest Airport: KFFZ
[16:42] Distance: 0.04 miles
[16:42] Runway: 4L - KFFZ
[16:42] Ground Surface: Asphalt
[16:42] Ground Condition: Normal
[16:42] NOTE: Weather Report
[16:42] Wind Heading: 348°
[16:42] Wind Speed: 0 knots
[16:42] OAT: 13° C
[16:42] TAT: 14° C
[16:42] Precipitation: None
[16:42] Dew Point: 3° C
[16:42] Visibility: 62 miles
[16:42] METAR: KFFZ 151754Z 13003KT 10SM CLR 32/22 A2998 RMK AO2 SLP128 T03220217 10322 20267 58008 $
[16:42] View Mode: Virtual Cockpit
[16:42] NOTE: Taxi started
[16:43] View Mode: Virtual Cockpit
[16:44] NOTE: ----- LANDED -----
[16:44] Landing Rate: -127.65 fpm
[16:44] GS: 69 knots
[16:44] TAS: 70 knots
[16:44] IAS: 69 knots
[16:44] VS: -122 fpm
[16:44] FOB: 373 lbs
[16:44] Heading: 56°
[16:44] Pitch: 2°
[16:44] Bank: 9°
[16:44] Aircraft Weight: 2459.43 lbs
[16:44] Nearest Airport: KFFZ
[16:44] Distance: 0.09 miles
[16:44] Runway: ???
[16:44] Ground Surface: Asphalt
[16:44] Ground Condition: Normal
[16:44] NOTE: Weather Report
[16:44] Wind Heading: 348°
[16:44] Wind Speed: 0 knots
[16:44] OAT: 13° C
[16:44] TAT: 14° C
[16:44] Precipitation: None
[16:44] Dew Point: 3° C
[16:44] Visibility: 62 miles
[16:44] METAR: KFFZ 151754Z 13003KT 10SM CLR 32/22 A2998 RMK AO2 SLP128 T03220217 10322 20267 58008 $
[16:44] View Mode: Virtual Cockpit
[16:45] View Mode: Virtual Cockpit
[16:47] NOTE: ----- LANDED -----
[16:47] Landing Rate: -70.74 fpm
[16:47] GS: 95 knots
[16:47] TAS: 96 knots
[16:47] IAS: 94 knots
[16:47] VS: -72 fpm
[16:47] FOB: 369 lbs
[16:47] Heading: 216°
[16:47] Pitch: 1°
[16:47] Bank: -1°
[16:47] Aircraft Weight: 2455.52 lbs
[16:47] Nearest Airport: KFFZ
[16:47] Distance: 0.05 miles
[16:47] Runway: 22R - KFFZ
[16:47] Ground Surface: Asphalt
[16:47] Ground Condition: Normal
[16:47] NOTE: Weather Report
[16:47] Wind Heading: 348°
[16:47] Wind Speed: 0 knots
[16:47] OAT: 13° C
[16:47] TAT: 14° C
[16:47] Precipitation: None
[16:47] Dew Point: 3° C
[16:47] Visibility: 62 miles
[16:47] METAR: KFFZ 151754Z 13003KT 10SM CLR 32/22 A2998 RMK AO2 SLP128 T03220217 10322 20267 58008 $
[16:47] View Mode: Virtual Cockpit
[16:47] View Mode: Virtual Cockpit
[16:50] NOTE: ----- LANDED -----
[16:50] Landing Rate: -28.45 fpm
[16:50] GS: 64 knots
[16:50] TAS: 65 knots
[16:50] IAS: 63 knots
[16:50] VS: -33 fpm
[16:50] FOB: 364 lbs
[16:50] Heading: 221°
[16:50] Pitch: 0°
[16:50] Bank: -4°
[16:50] Aircraft Weight: 2450.54 lbs
[16:50] Nearest Airport: KFFZ
[16:50] Distance: 0.33 miles
[16:50] Runway: 22R - KFFZ
[16:50] Ground Surface: Asphalt
[16:50] Ground Condition: Normal
[16:50] NOTE: Weather Report
[16:50] Wind Heading: 348°
[16:50] Wind Speed: 0 knots
[16:50] OAT: 13° C
[16:50] TAT: 14° C
[16:50] Precipitation: None
[16:50] Dew Point: 3° C
[16:50] Visibility: 62 miles
[16:50] METAR: KFFZ 151754Z 13003KT 10SM CLR 32/22 A2998 RMK AO2 SLP128 T03220217 10322 20267 58008 $
[16:50] View Mode: Virtual Cockpit
[16:50] Stall: Encountered
[16:50] GS: 50 knots
[16:50] TAS: 49 knots
[16:50] IAS: 48 knots
[16:50] VS: 179 fpm
[16:50] Stall: Corrected
[16:50] GS: 50 knots
[16:50] TAS: 49 knots
[16:50] IAS: 48 knots
[16:50] VS: 223 fpm
[16:50] Stall: Encountered
[16:50] GS: 56 knots
[16:50] TAS: 54 knots
[16:50] IAS: 53 knots
[16:50] VS: 106 fpm
[16:51] Stall: Corrected
[16:51] GS: 54 knots
[16:51] TAS: 56 knots
[16:51] IAS: 54 knots
[16:51] VS: 432 fpm
[16:52] View Mode: Virtual Cockpit
[16:53] NOTE: ----- LANDED -----
[16:53] Landing Rate: -60.75 fpm
[16:53] GS: 71 knots
[16:53] TAS: 72 knots
[16:53] IAS: 71 knots
[16:53] VS: -58 fpm
[16:53] FOB: 361 lbs
[16:53] Heading: 221°
[16:53] Pitch: 1°
[16:53] Bank: 0°
[16:53] Aircraft Weight: 2446.96 lbs
[16:53] Nearest Airport: KFFZ
[16:53] Distance: 0.23 miles
[16:53] Runway: 22R - KFFZ
[16:53] Ground Surface: Asphalt
[16:53] Ground Condition: Normal
[16:53] NOTE: Weather Report
[16:53] Wind Heading: 348°
[16:53] Wind Speed: 0 knots
[16:53] OAT: 13° C
[16:53] TAT: 14° C
[16:53] Precipitation: None
[16:53] Dew Point: 3° C
[16:53] Visibility: 62 miles
[16:53] METAR: KFFZ 151754Z 13003KT 10SM CLR 32/22 A2998 RMK AO2 SLP128 T03220217 10322 20267 58008 $
[16:53] View Mode: Virtual Cockpit
[16:54] Engine 1: Stopped
[16:54] Light Data: Beacon OFF
[16:54] Light Data: Taxi lights OFF
[16:55] Light Data: Strobe lights OFF
[16:55] Light Data: Navigation OFF
[16:55] Gate: 9 - KFFZ
[16:55] NOTE: Flight Completed
[16:55] FS Aircraft: C182_N6182G
[16:55] FS Model: C182
[16:55] FS Type: Cessna
[16:55] FOB: 360 lbs
[16:55] Fuel Used: 195 lbs
[16:55] Flight Time: 01:07:03
[16:55] Flight Time (Dawn): 00:00:00
[16:55] Flight Time (Day): 01:07:03
[16:55] Flight Time (Dusk): 00:00:00
[16:55] Flight Time (Night): 00:00:00
[16:55] Total Landings: 7
[16:55] MaxSim Rate: 1x
[16:55] Cigar Box - 1.1.4.0
[16:55] ----- Flight Closed -----

Route Map